sensor_id;sensor_type;location;lat;lon;timestamp;P1;durP1;ratioP1;P2;durP2;ratioP2
46377;SDS011;32083;47.360;9.650;2023-03-14T00:30:25;0.75;;;0.35;;
46377;SDS011;32083;47.360;9.650;2023-03-14T00:33:33;0.30;;;0.30;;
46377;SDS011;32083;47.360;9.650;2023-03-14T00:41:13;0.65;;;0.40;;
46377;SDS011;32083;47.360;9.650;2023-03-14T00:44:25;0.65;;;0.43;;
46377;SDS011;32083;47.360;9.650;2023-03-14T00:47:49;1.13;;;0.32;;
46377;SDS011;32083;47.360;9.650;2023-03-14T00:50:28;0.45;;;0.20;;
46377;SDS011;32083;47.360;9.650;2023-03-14T02:51:14;1.00;;;0.30;;
46377;SDS011;32083;47.360;9.650;2023-03-14T03:23:07;0.68;;;0.30;;
46377;SDS011;32083;47.360;9.650;2023-03-14T05:03:34;1.90;;;0.80;;
46377;SDS011;32083;47.360;9.650;2023-03-14T05:06:01;1.67;;;0.90;;
46377;SDS011;32083;47.360;9.650;2023-03-14T05:08:27;1.80;;;1.60;;
46377;SDS011;32083;47.360;9.650;2023-03-14T05:10:53;1.40;;;1.02;;
46377;SDS011;32083;47.360;9.650;2023-03-14T05:13:20;3.05;;;1.42;;
46377;SDS011;32083;47.360;9.650;2023-03-14T05:15:46;3.13;;;2.42;;
46377;SDS011;32083;47.360;9.650;2023-03-14T05:18:12;0.50;;;0.50;;
46377;SDS011;32083;47.360;9.650;2023-03-14T05:20:38;3.20;;;2.08;;
46377;SDS011;32083;47.360;9.650;2023-03-14T05:23:04;2.83;;;1.80;;
46377;SDS011;32083;47.360;9.650;2023-03-14T05:25:30;1.00;;;0.57;;
46377;SDS011;32083;47.360;9.650;2023-03-14T05:27:56;1.73;;;0.88;;
46377;SDS011;32083;47.360;9.650;2023-03-14T05:30:22;1.52;;;0.88;;
46377;SDS011;32083;47.360;9.650;2023-03-14T05:32:48;1.33;;;0.80;;
46377;SDS011;32083;47.360;9.650;2023-03-14T05:35:14;1.42;;;1.13;;
46377;SDS011;32083;47.360;9.650;2023-03-14T05:37:40;0.98;;;0.68;;
46377;SDS011;32083;47.360;9.650;2023-03-14T05:40:06;0.77;;;0.50;;
46377;SDS011;32083;47.360;9.650;2023-03-14T05:42:34;3.45;;;1.38;;
46377;SDS011;32083;47.360;9.650;2023-03-14T05:45:00;4.18;;;3.38;;
46377;SDS011;32083;47.360;9.650;2023-03-14T05:47:26;6.43;;;4.82;;
46377;SDS011;32083;47.360;9.650;2023-03-14T05:49:52;4.88;;;2.45;;
46377;SDS011;32083;47.360;9.650;2023-03-14T05:52:18;2.85;;;2.60;;
46377;SDS011;32083;47.360;9.650;2023-03-14T05:54:43;2.85;;;1.70;;
46377;SDS011;32083;47.360;9.650;2023-03-14T05:57:09;1.92;;;1.73;;
46377;SDS011;32083;47.360;9.650;2023-03-14T05:59:35;1.10;;;0.73;;
46377;SDS011;32083;47.360;9.650;2023-03-14T06:02:01;2.63;;;0.70;;
46377;SDS011;32083;47.360;9.650;2023-03-14T06:04:27;1.52;;;0.70;;
46377;SDS011;32083;47.360;9.650;2023-03-14T06:06:53;1.00;;;0.70;;
46377;SDS011;32083;47.360;9.650;2023-03-14T06:09:20;0.85;;;0.75;;
46377;SDS011;32083;47.360;9.650;2023-03-14T06:11:48;1.35;;;1.00;;
46377;SDS011;32083;47.360;9.650;2023-03-14T06:14:14;0.95;;;0.60;;
46377;SDS011;32083;47.360;9.650;2023-03-14T06:16:40;0.80;;;0.50;;
46377;SDS011;32083;47.360;9.650;2023-03-14T06:19:06;1.52;;;0.60;;
46377;SDS011;32083;47.360;9.650;2023-03-14T06:21:32;1.13;;;0.88;;
46377;SDS011;32083;47.360;9.650;2023-03-14T06:23:58;1.10;;;0.80;;
46377;SDS011;32083;47.360;9.650;2023-03-14T06:26:24;1.23;;;0.70;;
46377;SDS011;32083;47.360;9.650;2023-03-14T06:28:50;2.50;;;1.40;;
46377;SDS011;32083;47.360;9.650;2023-03-14T06:31:16;2.58;;;1.40;;
46377;SDS011;32083;47.360;9.650;2023-03-14T06:33:42;2.28;;;1.48;;
46377;SDS011;32083;47.360;9.650;2023-03-14T06:36:08;1.80;;;1.40;;
46377;SDS011;32083;47.360;9.650;2023-03-14T06:38:34;1.55;;;0.80;;
46377;SDS011;32083;47.360;9.650;2023-03-14T06:41:04;2.33;;;0.75;;
46377;SDS011;32083;47.360;9.650;2023-03-14T06:43:31;1.67;;;0.70;;
46377;SDS011;32083;47.360;9.650;2023-03-14T06:45:57;0.70;;;0.52;;
46377;SDS011;32083;47.360;9.650;2023-03-14T06:53:33;1.63;;;0.55;;
46377;SDS011;32083;47.360;9.650;2023-03-14T06:55:59;1.50;;;0.70;;
46377;SDS011;32083;47.360;9.650;2023-03-14T06:58:25;3.95;;;2.63;;
46377;SDS011;32083;47.360;9.650;2023-03-14T07:00:52;3.22;;;1.80;;
46377;SDS011;32083;47.360;9.650;2023-03-14T07:03:19;3.22;;;1.15;;
46377;SDS011;32083;47.360;9.650;2023-03-14T07:05:45;1.17;;;0.93;;
46377;SDS011;32083;47.360;9.650;2023-03-14T07:08:11;1.55;;;1.17;;
46377;SDS011;32083;47.360;9.650;2023-03-14T07:10:37;3.15;;;1.50;;
46377;SDS011;32083;47.360;9.650;2023-03-14T07:13:03;1.90;;;1.38;;
46377;SDS011;32083;47.360;9.650;2023-03-14T07:15:29;1.40;;;1.20;;
46377;SDS011;32083;47.360;9.650;2023-03-14T07:17:56;2.80;;;1.50;;
46377;SDS011;32083;47.360;9.650;2023-03-14T07:20:21;2.13;;;0.98;;
46377;SDS011;32083;47.360;9.650;2023-03-14T07:22:48;2.65;;;1.33;;
46377;SDS011;32083;47.360;9.650;2023-03-14T07:25:15;1.40;;;1.23;;
46377;SDS011;32083;47.360;9.650;2023-03-14T07:27:45;1.70;;;0.90;;
46377;SDS011;32083;47.360;9.650;2023-03-14T07:30:13;3.78;;;1.13;;
46377;SDS011;32083;47.360;9.650;2023-03-14T07:32:39;1.85;;;1.08;;
46377;SDS011;32083;47.360;9.650;2023-03-14T07:35:05;4.82;;;1.45;;
46377;SDS011;32083;47.360;9.650;2023-03-14T07:37:32;1.85;;;1.20;;
46377;SDS011;32083;47.360;9.650;2023-03-14T07:39:58;2.05;;;1.20;;
46377;SDS011;32083;47.360;9.650;2023-03-14T07:42:24;1.95;;;1.30;;
46377;SDS011;32083;47.360;9.650;2023-03-14T07:44:50;3.33;;;1.20;;
46377;SDS011;32083;47.360;9.650;2023-03-14T07:47:16;1.85;;;1.02;;
46377;SDS011;32083;47.360;9.650;2023-03-14T07:49:42;2.53;;;0.98;;
46377;SDS011;32083;47.360;9.650;2023-03-14T07:52:08;0.90;;;0.63;;
46377;SDS011;32083;47.360;9.650;2023-03-14T07:54:34;3.88;;;1.30;;
46377;SDS011;32083;47.360;9.650;2023-03-14T07:57:05;2.47;;;1.13;;
46377;SDS011;32083;47.360;9.650;2023-03-14T08:07:21;1.42;;;1.10;;
46377;SDS011;32083;47.360;9.650;2023-03-14T08:09:47;1.77;;;1.10;;
46377;SDS011;32083;47.360;9.650;2023-03-14T08:12:13;2.50;;;0.80;;
46377;SDS011;32083;47.360;9.650;2023-03-14T08:14:41;2.83;;;1.10;;
46377;SDS011;32083;47.360;9.650;2023-03-14T08:19:42;1.95;;;0.80;;
46377;SDS011;32083;47.360;9.650;2023-03-14T08:22:08;2.90;;;0.80;;
46377;SDS011;32083;47.360;9.650;2023-03-14T08:24:34;1.40;;;0.82;;
46377;SDS011;32083;47.360;9.650;2023-03-14T08:27:00;2.75;;;0.63;;
46377;SDS011;32083;47.360;9.650;2023-03-14T08:29:30;1.58;;;0.75;;
46377;SDS011;32083;47.360;9.650;2023-03-14T08:31:56;1.25;;;0.60;;
46377;SDS011;32083;47.360;9.650;2023-03-14T08:34:25;1.13;;;0.70;;
46377;SDS011;32083;47.360;9.650;2023-03-14T08:36:51;0.95;;;0.60;;
46377;SDS011;32083;47.360;9.650;2023-03-14T08:39:17;1.48;;;0.85;;
46377;SDS011;32083;47.360;9.650;2023-03-14T08:41:43;2.65;;;0.80;;
46377;SDS011;32083;47.360;9.650;2023-03-14T08:44:09;3.08;;;1.42;;
46377;SDS011;32083;47.360;9.650;2023-03-14T08:46:39;2.55;;;0.73;;
46377;SDS011;32083;47.360;9.650;2023-03-14T08:49:05;1.45;;;0.60;;
46377;SDS011;32083;47.360;9.650;2023-03-14T08:51:31;0.80;;;0.60;;
46377;SDS011;32083;47.360;9.650;2023-03-14T08:53:57;1.00;;;0.63;;
46377;SDS011;32083;47.360;9.650;2023-03-14T08:56:24;0.90;;;0.63;;
46377;SDS011;32083;47.360;9.650;2023-03-14T08:58:50;2.90;;;1.25;;
46377;SDS011;32083;47.360;9.650;2023-03-14T09:01:17;1.65;;;0.57;;
46377;SDS011;32083;47.360;9.650;2023-03-14T09:03:44;1.33;;;0.80;;
46377;SDS011;32083;47.360;9.650;2023-03-14T09:06:12;1.42;;;0.60;;
46377;SDS011;32083;47.360;9.650;2023-03-14T09:08:38;2.40;;;0.88;;
46377;SDS011;32083;47.360;9.650;2023-03-14T09:11:06;0.88;;;0.50;;
46377;SDS011;32083;47.360;9.650;2023-03-14T09:13:33;1.58;;;0.60;;
46377;SDS011;32083;47.360;9.650;2023-03-14T09:16:00;1.92;;;0.85;;
46377;SDS011;32083;47.360;9.650;2023-03-14T09:18:26;3.03;;;0.60;;
46377;SDS011;32083;47.360;9.650;2023-03-14T09:20:54;0.82;;;0.63;;
46377;SDS011;32083;47.360;9.650;2023-03-14T09:23:21;1.70;;;0.55;;
46377;SDS011;32083;47.360;9.650;2023-03-14T09:25:47;2.65;;;1.20;;
46377;SDS011;32083;47.360;9.650;2023-03-14T09:28:13;1.58;;;1.48;;
46377;SDS011;32083;47.360;9.650;2023-03-14T09:30:40;2.45;;;1.52;;
46377;SDS011;32083;47.360;9.650;2023-03-14T09:33:06;3.00;;;1.70;;
46377;SDS011;32083;47.360;9.650;2023-03-14T09:35:33;1.58;;;1.10;;
46377;SDS011;32083;47.360;9.650;2023-03-14T09:37:59;1.33;;;0.80;;
46377;SDS011;32083;47.360;9.650;2023-03-14T09:40:27;3.05;;;0.70;;
46377;SDS011;32083;47.360;9.650;2023-03-14T09:42:59;11.70;;;1.83;;
46377;SDS011;32083;47.360;9.650;2023-03-14T09:45:26;2.15;;;1.30;;
46377;SDS011;32083;47.360;9.650;2023-03-14T09:48:05;2.85;;;0.82;;
46377;SDS011;32083;47.360;9.650;2023-03-14T09:50:42;3.00;;;0.80;;
46377;SDS011;32083;47.360;9.650;2023-03-14T09:53:14;4.53;;;1.30;;
46377;SDS011;32083;47.360;9.650;2023-03-14T09:55:49;1.70;;;0.98;;
46377;SDS011;32083;47.360;9.650;2023-03-14T09:58:22;2.30;;;1.02;;
46377;SDS011;32083;47.360;9.650;2023-03-14T10:00:49;2.30;;;1.23;;
46377;SDS011;32083;47.360;9.650;2023-03-14T10:03:22;2.72;;;0.95;;
46377;SDS011;32083;47.360;9.650;2023-03-14T10:05:48;1.45;;;0.90;;
46377;SDS011;32083;47.360;9.650;2023-03-14T10:08:16;4.25;;;0.98;;
46377;SDS011;32083;47.360;9.650;2023-03-14T10:10:43;1.73;;;0.70;;
46377;SDS011;32083;47.360;9.650;2023-03-14T10:13:16;1.67;;;0.57;;
46377;SDS011;32083;47.360;9.650;2023-03-14T10:15:58;2.08;;;0.70;;
46377;SDS011;32083;47.360;9.650;2023-03-14T10:18:33;2.92;;;0.95;;
46377;SDS011;32083;47.360;9.650;2023-03-14T10:21:07;2.20;;;0.93;;
46377;SDS011;32083;47.360;9.650;2023-03-14T10:23:55;2.60;;;0.73;;
46377;SDS011;32083;47.360;9.650;2023-03-14T10:26:53;9.02;;;1.63;;
46377;SDS011;32083;47.360;9.650;2023-03-14T10:32:20;1.52;;;0.63;;
46377;SDS011;32083;47.360;9.650;2023-03-14T10:34:46;2.33;;;0.80;;
46377;SDS011;32083;47.360;9.650;2023-03-14T10:37:57;4.25;;;1.10;;
46377;SDS011;32083;47.360;9.650;2023-03-14T10:40:35;3.40;;;0.70;;
46377;SDS011;32083;47.360;9.650;2023-03-14T10:43:07;2.45;;;0.80;;
46377;SDS011;32083;47.360;9.650;2023-03-14T10:45:43;2.42;;;0.68;;
46377;SDS011;32083;47.360;9.650;2023-03-14T10:48:24;11.10;;;1.02;;
46377;SDS011;32083;47.360;9.650;2023-03-14T10:53:34;2.08;;;1.38;;
46377;SDS011;32083;47.360;9.650;2023-03-14T10:56:11;1.13;;;0.60;;
46377;SDS011;32083;47.360;9.650;2023-03-14T11:10:16;2.88;;;1.20;;
46377;SDS011;32083;47.360;9.650;2023-03-14T11:15:27;3.88;;;1.00;;
46377;SDS011;32083;47.360;9.650;2023-03-14T11:29:40;2.60;;;1.00;;
46377;SDS011;32083;47.360;9.650;2023-03-14T11:32:14;1.65;;;0.80;;
46377;SDS011;32083;47.360;9.650;2023-03-14T11:34:51;3.28;;;0.70;;
46377;SDS011;32083;47.360;9.650;2023-03-14T11:40:25;2.40;;;0.40;;
46377;SDS011;32083;47.360;9.650;2023-03-14T11:42:54;8.13;;;1.67;;
46377;SDS011;32083;47.360;9.650;2023-03-14T11:45:35;2.50;;;0.90;;
46377;SDS011;32083;47.360;9.650;2023-03-14T11:50:32;2.85;;;0.60;;
46377;SDS011;32083;47.360;9.650;2023-03-14T11:53:09;0.90;;;0.50;;
46377;SDS011;32083;47.360;9.650;2023-03-14T11:55:43;0.98;;;0.47;;
46377;SDS011;32083;47.360;9.650;2023-03-14T11:58:16;2.13;;;0.63;;
46377;SDS011;32083;47.360;9.650;2023-03-14T12:00:50;2.33;;;1.00;;
46377;SDS011;32083;47.360;9.650;2023-03-14T12:06:22;1.92;;;0.68;;
46377;SDS011;32083;47.360;9.650;2023-03-14T12:11:33;0.65;;;0.50;;
46377;SDS011;32083;47.360;9.650;2023-03-14T12:14:32;1.10;;;0.47;;
46377;SDS011;32083;47.360;9.650;2023-03-14T12:19:42;0.93;;;0.50;;
46377;SDS011;32083;47.360;9.650;2023-03-14T12:35:57;2.00;;;0.60;;
46377;SDS011;32083;47.360;9.650;2023-03-14T12:43:45;0.77;;;0.30;;
46377;SDS011;32083;47.360;9.650;2023-03-14T12:48:47;1.40;;;0.60;;
46377;SDS011;32083;47.360;9.650;2023-03-14T12:51:19;1.60;;;0.43;;
46377;SDS011;32083;47.360;9.650;2023-03-14T12:56:23;0.10;;;0.10;;
46377;SDS011;32083;47.360;9.650;2023-03-14T13:01:44;0.40;;;0.20;;
46377;SDS011;32083;47.360;9.650;2023-03-14T13:04:13;4.90;;;0.40;;
46377;SDS011;32083;47.360;9.650;2023-03-14T13:06:53;2.60;;;1.02;;
46377;SDS011;32083;47.360;9.650;2023-03-14T13:12:02;0.32;;;0.32;;
46377;SDS011;32083;47.360;9.650;2023-03-14T13:14:34;0.60;;;0.20;;
46377;SDS011;32083;47.360;9.650;2023-03-14T13:17:01;0.63;;;0.30;;
46377;SDS011;32083;47.360;9.650;2023-03-14T13:19:28;0.40;;;0.32;;
46377;SDS011;32083;47.360;9.650;2023-03-14T13:22:00;0.30;;;0.30;;
46377;SDS011;32083;47.360;9.650;2023-03-14T13:24:32;0.70;;;0.40;;
46377;SDS011;32083;47.360;9.650;2023-03-14T13:26:59;0.20;;;0.20;;
46377;SDS011;32083;47.360;9.650;2023-03-14T13:29:29;0.30;;;0.30;;
46377;SDS011;32083;47.360;9.650;2023-03-14T13:31:58;1.63;;;0.50;;
46377;SDS011;32083;47.360;9.650;2023-03-14T13:34:26;0.50;;;0.13;;
46377;SDS011;32083;47.360;9.650;2023-03-14T13:36:56;0.20;;;0.20;;
46377;SDS011;32083;47.360;9.650;2023-03-14T13:39:23;0.20;;;0.20;;
46377;SDS011;32083;47.360;9.650;2023-03-14T13:41:51;0.60;;;0.40;;
46377;SDS011;32083;47.360;9.650;2023-03-14T13:49:22;0.65;;;0.45;;
46377;SDS011;32083;47.360;9.650;2023-03-14T13:51:50;0.40;;;0.28;;
46377;SDS011;32083;47.360;9.650;2023-03-14T13:54:17;2.65;;;0.20;;
46377;SDS011;32083;47.360;9.650;2023-03-14T13:56:44;0.68;;;0.40;;
46377;SDS011;32083;47.360;9.650;2023-03-14T13:59:30;0.60;;;0.15;;
46377;SDS011;32083;47.360;9.650;2023-03-14T14:01:58;0.40;;;0.40;;
46377;SDS011;32083;47.360;9.650;2023-03-14T14:04:28;0.40;;;0.40;;
46377;SDS011;32083;47.360;9.650;2023-03-14T14:06:57;0.77;;;0.35;;
46377;SDS011;32083;47.360;9.650;2023-03-14T14:09:26;0.85;;;0.50;;
46377;SDS011;32083;47.360;9.650;2023-03-14T14:16:52;1.63;;;0.40;;
46377;SDS011;32083;47.360;9.650;2023-03-14T14:19:19;0.63;;;0.40;;
46377;SDS011;32083;47.360;9.650;2023-03-14T14:21:49;0.45;;;0.30;;
46377;SDS011;32083;47.360;9.650;2023-03-14T14:24:15;1.65;;;0.93;;
46377;SDS011;32083;47.360;9.650;2023-03-14T14:26:55;1.23;;;0.40;;
46377;SDS011;32083;47.360;9.650;2023-03-14T14:29:27;0.47;;;0.30;;
46377;SDS011;32083;47.360;9.650;2023-03-14T14:32:01;0.60;;;0.50;;
46377;SDS011;32083;47.360;9.650;2023-03-14T14:37:27;1.17;;;0.70;;
46377;SDS011;32083;47.360;9.650;2023-03-14T14:39:56;1.13;;;0.40;;
46377;SDS011;32083;47.360;9.650;2023-03-14T14:42:25;3.17;;;1.60;;
46377;SDS011;32083;47.360;9.650;2023-03-14T14:44:53;1.52;;;1.08;;
46377;SDS011;32083;47.360;9.650;2023-03-14T14:47:22;0.73;;;0.50;;
46377;SDS011;32083;47.360;9.650;2023-03-14T14:49:51;1.75;;;0.50;;
46377;SDS011;32083;47.360;9.650;2023-03-14T14:52:30;2.40;;;0.60;;
46377;SDS011;32083;47.360;9.650;2023-03-14T14:55:00;2.20;;;0.55;;
46377;SDS011;32083;47.360;9.650;2023-03-14T15:00:17;1.55;;;0.52;;
46377;SDS011;32083;47.360;9.650;2023-03-14T15:02:46;1.65;;;0.43;;
46377;SDS011;32083;47.360;9.650;2023-03-14T15:05:14;3.13;;;1.02;;
46377;SDS011;32083;47.360;9.650;2023-03-14T15:07:42;2.65;;;0.30;;
46377;SDS011;32083;47.360;9.650;2023-03-14T15:10:10;3.33;;;1.63;;
46377;SDS011;32083;47.360;9.650;2023-03-14T15:12:44;2.70;;;1.20;;
46377;SDS011;32083;47.360;9.650;2023-03-14T15:15:10;5.25;;;1.05;;
46377;SDS011;32083;47.360;9.650;2023-03-14T15:17:37;2.03;;;0.60;;
46377;SDS011;32083;47.360;9.650;2023-03-14T15:20:09;2.60;;;0.80;;
46377;SDS011;32083;47.360;9.650;2023-03-14T15:22:38;2.75;;;0.70;;
46377;SDS011;32083;47.360;9.650;2023-03-14T15:25:05;2.15;;;0.73;;
46377;SDS011;32083;47.360;9.650;2023-03-14T15:27:31;2.65;;;0.82;;
46377;SDS011;32083;47.360;9.650;2023-03-14T15:29:58;2.03;;;0.50;;
46377;SDS011;32083;47.360;9.650;2023-03-14T15:32:27;3.85;;;1.40;;
46377;SDS011;32083;47.360;9.650;2023-03-14T15:34:56;2.70;;;0.60;;
46377;SDS011;32083;47.360;9.650;2023-03-14T15:37:22;2.45;;;0.52;;
46377;SDS011;32083;47.360;9.650;2023-03-14T15:39:51;2.22;;;0.68;;
46377;SDS011;32083;47.360;9.650;2023-03-14T15:42:17;0.95;;;0.60;;
46377;SDS011;32083;47.360;9.650;2023-03-14T15:44:43;2.78;;;0.82;;
46377;SDS011;32083;47.360;9.650;2023-03-14T15:47:10;3.15;;;0.55;;
46377;SDS011;32083;47.360;9.650;2023-03-14T15:49:36;2.28;;;0.80;;
46377;SDS011;32083;47.360;9.650;2023-03-14T15:52:02;5.45;;;0.88;;
46377;SDS011;32083;47.360;9.650;2023-03-14T15:54:28;6.95;;;1.20;;
46377;SDS011;32083;47.360;9.650;2023-03-14T15:56:57;3.38;;;1.63;;
46377;SDS011;32083;47.360;9.650;2023-03-14T15:59:23;2.60;;;0.73;;
46377;SDS011;32083;47.360;9.650;2023-03-14T16:01:50;2.30;;;0.90;;
46377;SDS011;32083;47.360;9.650;2023-03-14T16:04:16;0.90;;;0.60;;
46377;SDS011;32083;47.360;9.650;2023-03-14T16:06:44;4.25;;;1.30;;
46377;SDS011;32083;47.360;9.650;2023-03-14T16:09:11;2.17;;;1.27;;
46377;SDS011;32083;47.360;9.650;2023-03-14T16:11:37;2.83;;;1.65;;
46377;SDS011;32083;47.360;9.650;2023-03-14T16:14:03;2.33;;;1.13;;
46377;SDS011;32083;47.360;9.650;2023-03-14T16:16:30;2.40;;;1.10;;
46377;SDS011;32083;47.360;9.650;2023-03-14T16:18:56;1.45;;;1.13;;
46377;SDS011;32083;47.360;9.650;2023-03-14T16:21:22;1.85;;;1.10;;
46377;SDS011;32083;47.360;9.650;2023-03-14T16:23:48;2.55;;;1.65;;
46377;SDS011;32083;47.360;9.650;2023-03-14T16:26:14;3.10;;;1.60;;
46377;SDS011;32083;47.360;9.650;2023-03-14T16:28:42;2.20;;;1.83;;
46377;SDS011;32083;47.360;9.650;2023-03-14T16:31:10;4.15;;;1.58;;
46377;SDS011;32083;47.360;9.650;2023-03-14T16:33:38;4.07;;;2.13;;
46377;SDS011;32083;47.360;9.650;2023-03-14T16:36:05;3.22;;;1.92;;
46377;SDS011;32083;47.360;9.650;2023-03-14T16:38:33;4.50;;;1.83;;
46377;SDS011;32083;47.360;9.650;2023-03-14T16:43:34;4.25;;;2.53;;
46377;SDS011;32083;47.360;9.650;2023-03-14T16:46:04;2.42;;;1.83;;
46377;SDS011;32083;47.360;9.650;2023-03-14T16:48:32;1.75;;;0.90;;
46377;SDS011;32083;47.360;9.650;2023-03-14T16:50:58;1.45;;;0.80;;
46377;SDS011;32083;47.360;9.650;2023-03-14T16:53:24;0.88;;;0.60;;
46377;SDS011;32083;47.360;9.650;2023-03-14T16:55:53;1.10;;;0.60;;
46377;SDS011;32083;47.360;9.650;2023-03-14T16:58:19;1.67;;;0.93;;
46377;SDS011;32083;47.360;9.650;2023-03-14T17:00:45;3.17;;;0.82;;
46377;SDS011;32083;47.360;9.650;2023-03-14T17:03:12;0.70;;;0.55;;
46377;SDS011;32083;47.360;9.650;2023-03-14T17:05:43;0.40;;;0.38;;
46377;SDS011;32083;47.360;9.650;2023-03-14T17:08:11;2.00;;;0.52;;
46377;SDS011;32083;47.360;9.650;2023-03-14T17:10:37;1.10;;;0.70;;
46377;SDS011;32083;47.360;9.650;2023-03-14T17:13:03;0.80;;;0.45;;
46377;SDS011;32083;47.360;9.650;2023-03-14T17:15:29;1.45;;;0.40;;
46377;SDS011;32083;47.360;9.650;2023-03-14T17:17:55;0.90;;;0.50;;
46377;SDS011;32083;47.360;9.650;2023-03-14T17:20:21;1.63;;;0.60;;
46377;SDS011;32083;47.360;9.650;2023-03-14T17:22:48;1.17;;;0.50;;
46377;SDS011;32083;47.360;9.650;2023-03-14T17:25:14;0.52;;;0.30;;
46377;SDS011;32083;47.360;9.650;2023-03-14T17:27:40;2.15;;;0.73;;
46377;SDS011;32083;47.360;9.650;2023-03-14T17:30:06;1.30;;;0.80;;
46377;SDS011;32083;47.360;9.650;2023-03-14T17:32:33;2.80;;;0.57;;
46377;SDS011;32083;47.360;9.650;2023-03-14T17:34:59;1.63;;;0.85;;
46377;SDS011;32083;47.360;9.650;2023-03-14T17:37:24;1.65;;;0.47;;
46377;SDS011;32083;47.360;9.650;2023-03-14T17:39:50;0.93;;;0.45;;
46377;SDS011;32083;47.360;9.650;2023-03-14T17:42:16;1.30;;;0.47;;
46377;SDS011;32083;47.360;9.650;2023-03-14T17:44:43;1.48;;;0.75;;
46377;SDS011;32083;47.360;9.650;2023-03-14T17:47:10;1.60;;;1.10;;
46377;SDS011;32083;47.360;9.650;2023-03-14T17:49:36;2.30;;;1.63;;
46377;SDS011;32083;47.360;9.650;2023-03-14T17:52:04;2.95;;;1.98;;
46377;SDS011;32083;47.360;9.650;2023-03-14T17:54:32;2.42;;;1.30;;
46377;SDS011;32083;47.360;9.650;2023-03-14T17:56:58;4.18;;;1.52;;
46377;SDS011;32083;47.360;9.650;2023-03-14T17:59:24;1.52;;;1.35;;
46377;SDS011;32083;47.360;9.650;2023-03-14T18:01:50;2.47;;;1.83;;
46377;SDS011;32083;47.360;9.650;2023-03-14T18:04:16;2.25;;;1.70;;
46377;SDS011;32083;47.360;9.650;2023-03-14T18:06:44;1.95;;;1.15;;
46377;SDS011;32083;47.360;9.650;2023-03-14T18:09:10;2.35;;;0.60;;
46377;SDS011;32083;47.360;9.650;2023-03-14T18:11:36;1.52;;;0.93;;
46377;SDS011;32083;47.360;9.650;2023-03-14T18:14:02;0.50;;;0.50;;
46377;SDS011;32083;47.360;9.650;2023-03-14T18:16:31;0.88;;;0.40;;
46377;SDS011;32083;47.360;9.650;2023-03-14T18:18:58;2.95;;;1.13;;
46377;SDS011;32083;47.360;9.650;2023-03-14T18:21:24;4.68;;;2.65;;
46377;SDS011;32083;47.360;9.650;2023-03-14T18:23:53;1.20;;;0.77;;
46377;SDS011;32083;47.360;9.650;2023-03-14T18:26:19;1.40;;;1.15;;
46377;SDS011;32083;47.360;9.650;2023-03-14T18:28:45;4.95;;;1.83;;
46377;SDS011;32083;47.360;9.650;2023-03-14T18:31:12;2.20;;;1.60;;
46377;SDS011;32083;47.360;9.650;2023-03-14T18:33:46;2.72;;;1.75;;
46377;SDS011;32083;47.360;9.650;2023-03-14T18:36:12;2.55;;;1.33;;
46377;SDS011;32083;47.360;9.650;2023-03-14T18:38:39;1.67;;;1.00;;
46377;SDS011;32083;47.360;9.650;2023-03-14T18:41:10;1.27;;;0.73;;
46377;SDS011;32083;47.360;9.650;2023-03-14T18:43:38;0.73;;;0.60;;
46377;SDS011;32083;47.360;9.650;2023-03-14T18:46:04;1.85;;;0.68;;
46377;SDS011;32083;47.360;9.650;2023-03-14T18:48:30;2.42;;;1.10;;
46377;SDS011;32083;47.360;9.650;2023-03-14T18:50:57;7.68;;;3.58;;
46377;SDS011;32083;47.360;9.650;2023-03-14T18:53:23;13.57;;;8.00;;
46377;SDS011;32083;47.360;9.650;2023-03-14T18:55:59;15.45;;;9.65;;
46377;SDS011;32083;47.360;9.650;2023-03-14T18:58:25;4.47;;;2.83;;
46377;SDS011;32083;47.360;9.650;2023-03-14T19:00:56;2.70;;;1.52;;
46377;SDS011;32083;47.360;9.650;2023-03-14T19:03:23;6.95;;;3.33;;
46377;SDS011;32083;47.360;9.650;2023-03-14T19:05:50;4.10;;;2.05;;
46377;SDS011;32083;47.360;9.650;2023-03-14T19:08:17;3.85;;;2.03;;
46377;SDS011;32083;47.360;9.650;2023-03-14T19:10:43;2.53;;;1.27;;
46377;SDS011;32083;47.360;9.650;2023-03-14T19:13:09;4.03;;;2.17;;
46377;SDS011;32083;47.360;9.650;2023-03-14T19:15:35;3.17;;;1.52;;
46377;SDS011;32083;47.360;9.650;2023-03-14T19:18:01;1.70;;;0.98;;
46377;SDS011;32083;47.360;9.650;2023-03-14T19:20:27;4.10;;;1.10;;
46377;SDS011;32083;47.360;9.650;2023-03-14T19:22:54;1.58;;;1.00;;
46377;SDS011;32083;47.360;9.650;2023-03-14T19:25:22;4.53;;;1.58;;
46377;SDS011;32083;47.360;9.650;2023-03-14T19:27:48;8.88;;;5.65;;
46377;SDS011;32083;47.360;9.650;2023-03-14T19:30:15;19.60;;;14.40;;
46377;SDS011;32083;47.360;9.650;2023-03-14T19:32:41;10.68;;;7.15;;
46377;SDS011;32083;47.360;9.650;2023-03-14T19:35:07;7.15;;;4.75;;
46377;SDS011;32083;47.360;9.650;2023-03-14T19:37:33;4.53;;;1.85;;
46377;SDS011;32083;47.360;9.650;2023-03-14T19:39:59;4.10;;;1.40;;
46377;SDS011;32083;47.360;9.650;2023-03-14T19:42:25;2.78;;;1.20;;
46377;SDS011;32083;47.360;9.650;2023-03-14T19:44:51;3.22;;;1.90;;
46377;SDS011;32083;47.360;9.650;2023-03-14T19:47:18;4.63;;;2.92;;
46377;SDS011;32083;47.360;9.650;2023-03-14T19:49:44;4.13;;;3.03;;
46377;SDS011;32083;47.360;9.650;2023-03-14T19:52:10;3.25;;;2.50;;
46377;SDS011;32083;47.360;9.650;2023-03-14T19:54:36;4.57;;;3.20;;
46377;SDS011;32083;47.360;9.650;2023-03-14T19:57:02;3.95;;;2.03;;
46377;SDS011;32083;47.360;9.650;2023-03-14T19:59:29;4.03;;;3.22;;
46377;SDS011;32083;47.360;9.650;2023-03-14T20:01:55;5.63;;;4.50;;
46377;SDS011;32083;47.360;9.650;2023-03-14T20:04:22;2.58;;;1.85;;
46377;SDS011;32083;47.360;9.650;2023-03-14T20:06:52;9.85;;;8.52;;
46377;SDS011;32083;47.360;9.650;2023-03-14T20:09:18;8.05;;;4.65;;
46377;SDS011;32083;47.360;9.650;2023-03-14T20:11:45;4.43;;;3.17;;
46377;SDS011;32083;47.360;9.650;2023-03-14T20:14:11;7.45;;;2.60;;
46377;SDS011;32083;47.360;9.650;2023-03-14T20:16:40;2.95;;;1.55;;
46377;SDS011;32083;47.360;9.650;2023-03-14T20:19:06;9.65;;;6.20;;
46377;SDS011;32083;47.360;9.650;2023-03-14T20:21:33;6.80;;;3.80;;
46377;SDS011;32083;47.360;9.650;2023-03-14T20:24:00;21.85;;;13.73;;
46377;SDS011;32083;47.360;9.650;2023-03-14T20:26:27;3.00;;;1.45;;
46377;SDS011;32083;47.360;9.650;2023-03-14T20:28:53;10.15;;;6.28;;
46377;SDS011;32083;47.360;9.650;2023-03-14T20:31:20;6.40;;;3.60;;
46377;SDS011;32083;47.360;9.650;2023-03-14T20:33:46;14.70;;;7.50;;
46377;SDS011;32083;47.360;9.650;2023-03-14T20:36:12;6.03;;;3.38;;
46377;SDS011;32083;47.360;9.650;2023-03-14T20:38:39;14.23;;;8.75;;
46377;SDS011;32083;47.360;9.650;2023-03-14T20:41:05;4.18;;;2.85;;
46377;SDS011;32083;47.360;9.650;2023-03-14T20:43:32;7.70;;;4.63;;
46377;SDS011;32083;47.360;9.650;2023-03-14T20:45:59;21.40;;;12.05;;
46377;SDS011;32083;47.360;9.650;2023-03-14T20:48:25;16.55;;;10.73;;
46377;SDS011;32083;47.360;9.650;2023-03-14T20:50:52;12.25;;;8.80;;
46377;SDS011;32083;47.360;9.650;2023-03-14T20:53:18;10.75;;;7.57;;
46377;SDS011;32083;47.360;9.650;2023-03-14T20:55:45;4.82;;;3.03;;
46377;SDS011;32083;47.360;9.650;2023-03-14T20:58:12;2.17;;;1.38;;
46377;SDS011;32083;47.360;9.650;2023-03-14T21:00:39;1.30;;;0.77;;
46377;SDS011;32083;47.360;9.650;2023-03-14T21:03:08;2.13;;;1.00;;
46377;SDS011;32083;47.360;9.650;2023-03-14T21:05:35;2.17;;;1.20;;
46377;SDS011;32083;47.360;9.650;2023-03-14T21:08:01;2.22;;;1.10;;
46377;SDS011;32083;47.360;9.650;2023-03-14T21:10:27;2.05;;;1.15;;
46377;SDS011;32083;47.360;9.650;2023-03-14T21:12:53;4.15;;;2.08;;
46377;SDS011;32083;47.360;9.650;2023-03-14T21:15:19;3.53;;;2.03;;
46377;SDS011;32083;47.360;9.650;2023-03-14T21:17:46;3.25;;;1.35;;
46377;SDS011;32083;47.360;9.650;2023-03-14T21:20:12;3.22;;;1.50;;
46377;SDS011;32083;47.360;9.650;2023-03-14T21:22:38;1.75;;;1.15;;
46377;SDS011;32083;47.360;9.650;2023-03-14T21:25:04;1.20;;;0.70;;